sensor_id;sensor_type;location;lat;lon;timestamp;P1;durP1;ratioP1;P2;durP2;ratioP2
45388;SDS011;31127;52.078;4.370;2023-07-02T00:01:01;13.90;;;4.00;;
45388;SDS011;31127;52.078;4.370;2023-07-02T00:05:57;7.72;;;2.97;;
45388;SDS011;31127;52.078;4.370;2023-07-02T00:10:52;9.25;;;3.10;;
45388;SDS011;31127;52.078;4.370;2023-07-02T00:15:48;13.27;;;4.00;;
45388;SDS011;31127;52.078;4.370;2023-07-02T00:20:44;14.45;;;4.38;;
45388;SDS011;31127;52.078;4.370;2023-07-02T00:25:39;14.93;;;4.78;;
45388;SDS011;31127;52.078;4.370;2023-07-02T00:30:35;18.48;;;6.03;;
45388;SDS011;31127;52.078;4.370;2023-07-02T00:35:30;17.15;;;6.75;;
45388;SDS011;31127;52.078;4.370;2023-07-02T00:40:27;11.27;;;5.15;;
45388;SDS011;31127;52.078;4.370;2023-07-02T00:45:22;22.23;;;6.80;;
45388;SDS011;31127;52.078;4.370;2023-07-02T00:50:22;17.60;;;6.50;;
45388;SDS011;31127;52.078;4.370;2023-07-02T00:55:18;12.18;;;4.85;;
45388;SDS011;31127;52.078;4.370;2023-07-02T01:00:14;16.45;;;6.00;;
45388;SDS011;31127;52.078;4.370;2023-07-02T01:05:16;19.63;;;5.68;;
45388;SDS011;31127;52.078;4.370;2023-07-02T01:10:11;20.75;;;5.80;;
45388;SDS011;31127;52.078;4.370;2023-07-02T01:15:07;15.27;;;5.68;;
45388;SDS011;31127;52.078;4.370;2023-07-02T01:20:03;15.95;;;6.05;;
45388;SDS011;31127;52.078;4.370;2023-07-02T01:24:59;18.15;;;5.60;;
45388;SDS011;31127;52.078;4.370;2023-07-02T01:29:54;16.60;;;5.97;;
45388;SDS011;31127;52.078;4.370;2023-07-02T01:34:50;17.65;;;6.75;;
45388;SDS011;31127;52.078;4.370;2023-07-02T01:39:48;16.95;;;5.47;;
45388;SDS011;31127;52.078;4.370;2023-07-02T01:44:47;14.20;;;5.47;;
45388;SDS011;31127;52.078;4.370;2023-07-02T01:49:43;17.10;;;6.13;;
45388;SDS011;31127;52.078;4.370;2023-07-02T01:54:39;21.85;;;6.68;;
45388;SDS011;31127;52.078;4.370;2023-07-02T01:59:35;14.73;;;6.45;;
45388;SDS011;31127;52.078;4.370;2023-07-02T02:04:30;16.25;;;7.57;;
45388;SDS011;31127;52.078;4.370;2023-07-02T02:09:26;15.18;;;6.20;;
45388;SDS011;31127;52.078;4.370;2023-07-02T02:14:23;25.67;;;7.25;;
45388;SDS011;31127;52.078;4.370;2023-07-02T02:19:19;24.85;;;7.72;;
45388;SDS011;31127;52.078;4.370;2023-07-02T02:24:14;20.60;;;7.95;;
45388;SDS011;31127;52.078;4.370;2023-07-02T02:29:10;18.08;;;7.00;;
45388;SDS011;31127;52.078;4.370;2023-07-02T02:34:06;19.25;;;6.75;;
45388;SDS011;31127;52.078;4.370;2023-07-02T02:39:02;16.63;;;6.50;;
45388;SDS011;31127;52.078;4.370;2023-07-02T02:43:59;21.08;;;6.90;;
45388;SDS011;31127;52.078;4.370;2023-07-02T02:48:54;28.75;;;6.97;;
45388;SDS011;31127;52.078;4.370;2023-07-02T02:53:49;15.20;;;5.33;;
45388;SDS011;31127;52.078;4.370;2023-07-02T02:58:45;16.45;;;5.88;;
45388;SDS011;31127;52.078;4.370;2023-07-02T03:03:41;13.32;;;5.65;;
45388;SDS011;31127;52.078;4.370;2023-07-02T03:08:40;19.15;;;5.80;;
45388;SDS011;31127;52.078;4.370;2023-07-02T03:13:35;19.17;;;6.32;;
45388;SDS011;31127;52.078;4.370;2023-07-02T03:18:31;28.33;;;6.78;;
45388;SDS011;31127;52.078;4.370;2023-07-02T03:23:26;20.13;;;5.60;;
45388;SDS011;31127;52.078;4.370;2023-07-02T03:28:22;15.65;;;5.75;;
45388;SDS011;31127;52.078;4.370;2023-07-02T03:33:17;20.17;;;5.88;;
45388;SDS011;31127;52.078;4.370;2023-07-02T03:38:13;20.13;;;5.53;;
45388;SDS011;31127;52.078;4.370;2023-07-02T03:43:08;16.33;;;5.22;;
45388;SDS011;31127;52.078;4.370;2023-07-02T03:48:04;12.88;;;5.20;;
45388;SDS011;31127;52.078;4.370;2023-07-02T03:53:02;16.35;;;4.80;;
45388;SDS011;31127;52.078;4.370;2023-07-02T03:57:57;19.95;;;6.13;;
45388;SDS011;31127;52.078;4.370;2023-07-02T04:02:53;14.67;;;4.50;;
45388;SDS011;31127;52.078;4.370;2023-07-02T04:07:48;18.77;;;4.97;;
45388;SDS011;31127;52.078;4.370;2023-07-02T04:12:44;15.25;;;3.85;;
45388;SDS011;31127;52.078;4.370;2023-07-02T04:17:39;21.48;;;5.38;;
45388;SDS011;31127;52.078;4.370;2023-07-02T04:22:35;16.10;;;6.55;;
45388;SDS011;31127;52.078;4.370;2023-07-02T04:27:31;17.05;;;5.47;;
45388;SDS011;31127;52.078;4.370;2023-07-02T04:32:29;15.77;;;4.95;;
45388;SDS011;31127;52.078;4.370;2023-07-02T04:37:25;12.80;;;5.05;;
45388;SDS011;31127;52.078;4.370;2023-07-02T04:42:20;15.30;;;5.43;;
45388;SDS011;31127;52.078;4.370;2023-07-02T04:47:16;16.75;;;5.25;;
45388;SDS011;31127;52.078;4.370;2023-07-02T04:52:11;15.50;;;4.67;;
45388;SDS011;31127;52.078;4.370;2023-07-02T04:57:07;15.30;;;4.30;;
45388;SDS011;31127;52.078;4.370;2023-07-02T05:02:02;14.52;;;4.32;;
45388;SDS011;31127;52.078;4.370;2023-07-02T05:06:59;19.38;;;5.55;;
45388;SDS011;31127;52.078;4.370;2023-07-02T05:11:54;15.27;;;5.15;;
45388;SDS011;31127;52.078;4.370;2023-07-02T05:16:50;14.07;;;5.50;;
45388;SDS011;31127;52.078;4.370;2023-07-02T05:21:46;19.88;;;4.78;;
45388;SDS011;31127;52.078;4.370;2023-07-02T05:26:42;20.88;;;5.70;;
45388;SDS011;31127;52.078;4.370;2023-07-02T05:31:37;12.63;;;4.63;;
45388;SDS011;31127;52.078;4.370;2023-07-02T05:36:33;11.80;;;4.25;;
45388;SDS011;31127;52.078;4.370;2023-07-02T05:41:29;25.20;;;5.70;;
45388;SDS011;31127;52.078;4.370;2023-07-02T05:46:25;14.48;;;4.63;;
45388;SDS011;31127;52.078;4.370;2023-07-02T05:51:21;19.35;;;5.70;;
45388;SDS011;31127;52.078;4.370;2023-07-02T05:56:17;11.80;;;4.45;;
45388;SDS011;31127;52.078;4.370;2023-07-02T06:01:13;10.52;;;4.82;;
45388;SDS011;31127;52.078;4.370;2023-07-02T06:06:09;13.70;;;4.47;;
45388;SDS011;31127;52.078;4.370;2023-07-02T06:11:06;11.45;;;3.85;;
45388;SDS011;31127;52.078;4.370;2023-07-02T06:16:04;11.35;;;4.72;;
45388;SDS011;31127;52.078;4.370;2023-07-02T06:20:59;16.45;;;4.30;;
45388;SDS011;31127;52.078;4.370;2023-07-02T06:25:55;10.57;;;4.95;;
45388;SDS011;31127;52.078;4.370;2023-07-02T06:30:54;11.35;;;3.97;;
45388;SDS011;31127;52.078;4.370;2023-07-02T06:35:49;13.48;;;5.07;;
45388;SDS011;31127;52.078;4.370;2023-07-02T06:40:45;7.20;;;3.72;;
45388;SDS011;31127;52.078;4.370;2023-07-02T06:45:40;19.10;;;4.82;;
45388;SDS011;31127;52.078;4.370;2023-07-02T06:50:36;15.02;;;4.38;;
45388;SDS011;31127;52.078;4.370;2023-07-02T06:55:32;12.70;;;4.63;;
45388;SDS011;31127;52.078;4.370;2023-07-02T07:00:27;9.73;;;4.10;;
45388;SDS011;31127;52.078;4.370;2023-07-02T07:05:23;10.45;;;4.25;;
45388;SDS011;31127;52.078;4.370;2023-07-02T07:10:18;14.32;;;4.28;;
45388;SDS011;31127;52.078;4.370;2023-07-02T07:15:15;15.43;;;4.88;;
45388;SDS011;31127;52.078;4.370;2023-07-02T07:20:11;14.23;;;4.35;;
45388;SDS011;31127;52.078;4.370;2023-07-02T07:25:07;10.48;;;3.58;;
45388;SDS011;31127;52.078;4.370;2023-07-02T07:30:03;17.20;;;4.65;;
45388;SDS011;31127;52.078;4.370;2023-07-02T07:34:59;15.05;;;4.00;;
45388;SDS011;31127;52.078;4.370;2023-07-02T07:39:54;10.87;;;4.50;;
45388;SDS011;31127;52.078;4.370;2023-07-02T07:44:49;15.80;;;4.85;;
45388;SDS011;31127;52.078;4.370;2023-07-02T07:49:45;11.45;;;4.03;;
45388;SDS011;31127;52.078;4.370;2023-07-02T07:54:42;11.88;;;4.22;;
45388;SDS011;31127;52.078;4.370;2023-07-02T07:59:38;14.65;;;3.97;;
45388;SDS011;31127;52.078;4.370;2023-07-02T08:04:34;8.23;;;3.45;;
45388;SDS011;31127;52.078;4.370;2023-07-02T08:09:30;10.55;;;3.75;;
45388;SDS011;31127;52.078;4.370;2023-07-02T08:14:25;16.75;;;4.68;;
45388;SDS011;31127;52.078;4.370;2023-07-02T08:19:21;10.13;;;3.10;;
45388;SDS011;31127;52.078;4.370;2023-07-02T08:24:18;17.45;;;3.88;;
45388;SDS011;31127;52.078;4.370;2023-07-02T08:29:13;12.43;;;4.57;;
45388;SDS011;31127;52.078;4.370;2023-07-02T08:34:11;18.92;;;4.50;;
45388;SDS011;31127;52.078;4.370;2023-07-02T08:39:07;15.23;;;4.60;;
45388;SDS011;31127;52.078;4.370;2023-07-02T08:44:02;9.65;;;3.78;;
45388;SDS011;31127;52.078;4.370;2023-07-02T08:48:59;6.80;;;2.72;;
45388;SDS011;31127;52.078;4.370;2023-07-02T08:53:55;14.52;;;4.05;;
45388;SDS011;31127;52.078;4.370;2023-07-02T08:58:50;12.40;;;4.32;;
45388;SDS011;31127;52.078;4.370;2023-07-02T09:03:46;12.93;;;4.10;;
45388;SDS011;31127;52.078;4.370;2023-07-02T09:08:45;23.20;;;4.55;;
45388;SDS011;31127;52.078;4.370;2023-07-02T09:13:48;10.52;;;3.33;;
45388;SDS011;31127;52.078;4.370;2023-07-02T09:23:39;16.60;;;3.72;;
45388;SDS011;31127;52.078;4.370;2023-07-02T09:28:34;14.33;;;3.40;;
45388;SDS011;31127;52.078;4.370;2023-07-02T09:33:30;19.17;;;3.97;;
45388;SDS011;31127;52.078;4.370;2023-07-02T09:38:26;14.00;;;3.80;;
45388;SDS011;31127;52.078;4.370;2023-07-02T09:43:22;13.18;;;3.28;;
45388;SDS011;31127;52.078;4.370;2023-07-02T09:48:19;7.15;;;3.40;;
45388;SDS011;31127;52.078;4.370;2023-07-02T09:53:15;9.70;;;3.25;;
45388;SDS011;31127;52.078;4.370;2023-07-02T09:58:10;16.35;;;5.60;;
45388;SDS011;31127;52.078;4.370;2023-07-02T10:03:11;7.47;;;3.05;;
45388;SDS011;31127;52.078;4.370;2023-07-02T10:08:13;6.40;;;3.22;;
45388;SDS011;31127;52.078;4.370;2023-07-02T10:13:09;9.93;;;2.80;;
45388;SDS011;31127;52.078;4.370;2023-07-02T10:18:05;13.20;;;4.07;;
45388;SDS011;31127;52.078;4.370;2023-07-02T10:23:00;13.10;;;3.53;;
45388;SDS011;31127;52.078;4.370;2023-07-02T10:27:57;12.50;;;3.95;;
45388;SDS011;31127;52.078;4.370;2023-07-02T10:32:53;9.93;;;3.80;;
45388;SDS011;31127;52.078;4.370;2023-07-02T10:37:49;11.68;;;3.75;;
45388;SDS011;31127;52.078;4.370;2023-07-02T10:42:51;11.98;;;3.80;;
45388;SDS011;31127;52.078;4.370;2023-07-02T10:47:49;9.40;;;3.95;;
45388;SDS011;31127;52.078;4.370;2023-07-02T10:52:45;9.60;;;4.03;;
45388;SDS011;31127;52.078;4.370;2023-07-02T10:57:40;6.97;;;3.17;;
45388;SDS011;31127;52.078;4.370;2023-07-02T11:02:36;8.02;;;3.95;;
45388;SDS011;31127;52.078;4.370;2023-07-02T11:07:34;8.32;;;4.07;;
45388;SDS011;31127;52.078;4.370;2023-07-02T11:12:31;7.07;;;3.78;;
45388;SDS011;31127;52.078;4.370;2023-07-02T11:17:26;7.15;;;4.30;;
45388;SDS011;31127;52.078;4.370;2023-07-02T11:22:30;8.43;;;4.68;;
45388;SDS011;31127;52.078;4.370;2023-07-02T11:27:26;10.63;;;4.50;;
45388;SDS011;31127;52.078;4.370;2023-07-02T11:32:21;14.05;;;5.13;;
45388;SDS011;31127;52.078;4.370;2023-07-02T11:37:17;8.50;;;5.20;;
45388;SDS011;31127;52.078;4.370;2023-07-02T11:42:12;13.35;;;5.47;;
45388;SDS011;31127;52.078;4.370;2023-07-02T11:47:08;9.90;;;4.70;;
45388;SDS011;31127;52.078;4.370;2023-07-02T11:52:23;12.20;;;4.95;;
45388;SDS011;31127;52.078;4.370;2023-07-02T11:57:39;11.55;;;5.07;;
45388;SDS011;31127;52.078;4.370;2023-07-02T12:02:34;11.27;;;5.70;;
45388;SDS011;31127;52.078;4.370;2023-07-02T12:07:30;9.73;;;5.73;;
45388;SDS011;31127;52.078;4.370;2023-07-02T12:12:25;10.80;;;5.63;;
45388;SDS011;31127;52.078;4.370;2023-07-02T12:17:21;8.52;;;5.30;;
45388;SDS011;31127;52.078;4.370;2023-07-02T12:22:36;9.60;;;4.78;;
45388;SDS011;31127;52.078;4.370;2023-07-02T12:27:32;10.80;;;5.43;;
45388;SDS011;31127;52.078;4.370;2023-07-02T12:32:27;10.55;;;4.70;;
45388;SDS011;31127;52.078;4.370;2023-07-02T12:37:23;11.88;;;5.78;;
45388;SDS011;31127;52.078;4.370;2023-07-02T12:42:18;11.33;;;5.10;;
45388;SDS011;31127;52.078;4.370;2023-07-02T12:47:14;12.98;;;5.50;;
45388;SDS011;31127;52.078;4.370;2023-07-02T12:52:10;12.05;;;5.97;;
45388;SDS011;31127;52.078;4.370;2023-07-02T12:57:05;12.43;;;4.70;;
45388;SDS011;31127;52.078;4.370;2023-07-02T13:02:01;10.13;;;4.32;;
45388;SDS011;31127;52.078;4.370;2023-07-02T13:06:57;15.45;;;5.05;;
45388;SDS011;31127;52.078;4.370;2023-07-02T13:11:53;12.68;;;4.95;;
45388;SDS011;31127;52.078;4.370;2023-07-02T13:16:49;13.68;;;5.03;;
45388;SDS011;31127;52.078;4.370;2023-07-02T13:21:44;10.50;;;4.20;;
45388;SDS011;31127;52.078;4.370;2023-07-02T13:26:40;12.30;;;4.70;;
45388;SDS011;31127;52.078;4.370;2023-07-02T13:31:36;13.93;;;4.93;;
45388;SDS011;31127;52.078;4.370;2023-07-02T13:36:31;12.38;;;4.88;;
45388;SDS011;31127;52.078;4.370;2023-07-02T13:41:27;8.02;;;4.72;;
45388;SDS011;31127;52.078;4.370;2023-07-02T13:46:23;9.50;;;4.78;;
45388;SDS011;31127;52.078;4.370;2023-07-02T13:51:19;8.70;;;4.63;;
45388;SDS011;31127;52.078;4.370;2023-07-02T13:56:17;5.72;;;3.42;;
45388;SDS011;31127;52.078;4.370;2023-07-02T14:01:13;7.13;;;4.28;;
45388;SDS011;31127;52.078;4.370;2023-07-02T14:06:09;7.28;;;3.67;;
45388;SDS011;31127;52.078;4.370;2023-07-02T14:11:04;10.10;;;4.63;;
45388;SDS011;31127;52.078;4.370;2023-07-02T14:16:00;11.35;;;4.00;;
45388;SDS011;31127;52.078;4.370;2023-07-02T14:20:56;10.32;;;3.90;;
45388;SDS011;31127;52.078;4.370;2023-07-02T14:25:51;7.45;;;3.90;;
45388;SDS011;31127;52.078;4.370;2023-07-02T14:30:47;12.77;;;4.45;;
45388;SDS011;31127;52.078;4.370;2023-07-02T14:36:03;11.63;;;4.82;;
45388;SDS011;31127;52.078;4.370;2023-07-02T14:40:59;8.25;;;4.15;;
45388;SDS011;31127;52.078;4.370;2023-07-02T14:46:14;9.07;;;4.07;;
45388;SDS011;31127;52.078;4.370;2023-07-02T14:51:10;7.13;;;3.95;;
45388;SDS011;31127;52.078;4.370;2023-07-02T14:56:05;10.75;;;5.05;;
45388;SDS011;31127;52.078;4.370;2023-07-02T15:01:01;8.57;;;4.90;;
45388;SDS011;31127;52.078;4.370;2023-07-02T15:11:02;9.65;;;5.32;;
45388;SDS011;31127;52.078;4.370;2023-07-02T15:15:58;12.05;;;5.20;;
45388;SDS011;31127;52.078;4.370;2023-07-02T15:20:53;9.57;;;4.90;;
45388;SDS011;31127;52.078;4.370;2023-07-02T15:26:09;10.95;;;5.05;;
45388;SDS011;31127;52.078;4.370;2023-07-02T15:31:06;10.20;;;5.00;;
45388;SDS011;31127;52.078;4.370;2023-07-02T15:36:02;13.18;;;5.80;;
45388;SDS011;31127;52.078;4.370;2023-07-02T15:46:00;14.80;;;6.20;;
45388;SDS011;31127;52.078;4.370;2023-07-02T15:50:56;10.63;;;5.15;;
45388;SDS011;31127;52.078;4.370;2023-07-02T15:55:55;10.73;;;4.90;;
45388;SDS011;31127;52.078;4.370;2023-07-02T16:00:51;13.20;;;5.68;;
45388;SDS011;31127;52.078;4.370;2023-07-02T16:05:47;11.68;;;5.57;;
45388;SDS011;31127;52.078;4.370;2023-07-02T16:10:43;9.68;;;5.25;;
45388;SDS011;31127;52.078;4.370;2023-07-02T16:15:39;11.05;;;5.63;;
45388;SDS011;31127;52.078;4.370;2023-07-02T16:20:37;17.83;;;5.88;;
45388;SDS011;31127;52.078;4.370;2023-07-02T16:25:32;12.90;;;5.20;;
45388;SDS011;31127;52.078;4.370;2023-07-02T16:30:28;16.80;;;5.80;;
45388;SDS011;31127;52.078;4.370;2023-07-02T16:35:23;14.45;;;5.30;;
45388;SDS011;31127;52.078;4.370;2023-07-02T16:40:19;16.90;;;5.65;;
45388;SDS011;31127;52.078;4.370;2023-07-02T16:45:15;11.48;;;5.35;;
45388;SDS011;31127;52.078;4.370;2023-07-02T16:50:10;14.60;;;5.88;;
45388;SDS011;31127;52.078;4.370;2023-07-02T16:55:06;14.98;;;5.63;;
45388;SDS011;31127;52.078;4.370;2023-07-02T17:00:02;20.63;;;6.43;;
45388;SDS011;31127;52.078;4.370;2023-07-02T17:04:58;17.98;;;5.47;;
45388;SDS011;31127;52.078;4.370;2023-07-02T17:09:54;11.15;;;5.05;;
45388;SDS011;31127;52.078;4.370;2023-07-02T17:14:51;14.73;;;5.00;;
45388;SDS011;31127;52.078;4.370;2023-07-02T17:19:50;23.08;;;6.15;;
45388;SDS011;31127;52.078;4.370;2023-07-02T17:24:46;19.55;;;5.50;;
45388;SDS011;31127;52.078;4.370;2023-07-02T17:29:48;16.98;;;5.80;;
45388;SDS011;31127;52.078;4.370;2023-07-02T17:34:45;19.52;;;5.40;;
45388;SDS011;31127;52.078;4.370;2023-07-02T17:39:40;14.73;;;5.25;;
45388;SDS011;31127;52.078;4.370;2023-07-02T17:44:37;11.00;;;4.60;;
45388;SDS011;31127;52.078;4.370;2023-07-02T17:49:33;18.67;;;4.88;;
45388;SDS011;31127;52.078;4.370;2023-07-02T17:54:33;19.08;;;5.13;;
45388;SDS011;31127;52.078;4.370;2023-07-02T17:59:29;10.02;;;4.50;;
45388;SDS011;31127;52.078;4.370;2023-07-02T18:04:26;13.90;;;6.10;;
45388;SDS011;31127;52.078;4.370;2023-07-02T18:09:21;18.10;;;4.95;;
45388;SDS011;31127;52.078;4.370;2023-07-02T18:14:18;12.32;;;3.60;;
45388;SDS011;31127;52.078;4.370;2023-07-02T18:19:14;10.48;;;4.00;;
45388;SDS011;31127;52.078;4.370;2023-07-02T18:24:10;15.18;;;4.40;;
45388;SDS011;31127;52.078;4.370;2023-07-02T18:29:06;13.07;;;4.43;;
45388;SDS011;31127;52.078;4.370;2023-07-02T18:34:01;20.13;;;4.57;;
45388;SDS011;31127;52.078;4.370;2023-07-02T18:39:17;19.27;;;5.80;;
45388;SDS011;31127;52.078;4.370;2023-07-02T18:44:13;15.70;;;5.13;;
45388;SDS011;31127;52.078;4.370;2023-07-02T18:49:08;14.52;;;4.75;;
45388;SDS011;31127;52.078;4.370;2023-07-02T18:54:04;16.90;;;4.63;;
45388;SDS011;31127;52.078;4.370;2023-07-02T18:58:59;16.35;;;3.70;;
45388;SDS011;31127;52.078;4.370;2023-07-02T19:03:54;18.43;;;5.70;;
45388;SDS011;31127;52.078;4.370;2023-07-02T19:08:55;24.88;;;5.53;;
45388;SDS011;31127;52.078;4.370;2023-07-02T19:13:51;19.75;;;4.68;;
45388;SDS011;31127;52.078;4.370;2023-07-02T19:18:47;13.88;;;4.15;;
45388;SDS011;31127;52.078;4.370;2023-07-02T19:23:42;17.67;;;5.55;;
45388;SDS011;31127;52.078;4.370;2023-07-02T19:28:38;22.60;;;5.55;;
45388;SDS011;31127;52.078;4.370;2023-07-02T19:33:33;12.85;;;4.65;;
45388;SDS011;31127;52.078;4.370;2023-07-02T19:38:29;21.38;;;5.38;;
45388;SDS011;31127;52.078;4.370;2023-07-02T19:43:25;20.30;;;4.55;;
45388;SDS011;31127;52.078;4.370;2023-07-02T19:48:23;20.00;;;4.50;;
45388;SDS011;31127;52.078;4.370;2023-07-02T19:53:19;16.92;;;4.45;;
45388;SDS011;31127;52.078;4.370;2023-07-02T19:58:14;15.63;;;4.65;;
45388;SDS011;31127;52.078;4.370;2023-07-02T20:03:10;16.23;;;4.45;;
45388;SDS011;31127;52.078;4.370;2023-07-02T20:08:07;13.00;;;4.43;;
45388;SDS011;31127;52.078;4.370;2023-07-02T20:13:02;15.73;;;4.22;;
45388;SDS011;31127;52.078;4.370;2023-07-02T20:17:58;13.55;;;4.50;;
45388;SDS011;31127;52.078;4.370;2023-07-02T20:23:14;19.38;;;5.30;;
45388;SDS011;31127;52.078;4.370;2023-07-02T20:28:09;11.63;;;4.07;;
45388;SDS011;31127;52.078;4.370;2023-07-02T20:33:05;28.75;;;5.57;;
45388;SDS011;31127;52.078;4.370;2023-07-02T20:38:00;17.48;;;4.60;;
45388;SDS011;31127;52.078;4.370;2023-07-02T20:42:56;18.85;;;4.35;;
45388;SDS011;31127;52.078;4.370;2023-07-02T20:47:56;15.82;;;4.15;;
45388;SDS011;31127;52.078;4.370;2023-07-02T20:52:55;26.10;;;4.82;;
45388;SDS011;31127;52.078;4.370;2023-07-02T20:57:52;19.15;;;5.50;;
45388;SDS011;31127;52.078;4.370;2023-07-02T21:02:48;19.90;;;5.43;;
45388;SDS011;31127;52.078;4.370;2023-07-02T21:07:47;19.17;;;5.28;;
45388;SDS011;31127;52.078;4.370;2023-07-02T21:12:44;14.93;;;4.65;;
45388;SDS011;31127;52.078;4.370;2023-07-02T21:17:39;18.00;;;5.57;;
45388;SDS011;31127;52.078;4.370;2023-07-02T21:22:35;19.77;;;4.32;;
45388;SDS011;31127;52.078;4.370;2023-07-02T21:27:31;18.95;;;4.70;;
45388;SDS011;31127;52.078;4.370;2023-07-02T21:32:46;14.45;;;4.78;;
45388;SDS011;31127;52.078;4.370;2023-07-02T21:37:43;18.95;;;5.43;;
45388;SDS011;31127;52.078;4.370;2023-07-02T21:42:41;21.60;;;5.10;;
45388;SDS011;31127;52.078;4.370;2023-07-02T21:47:36;31.23;;;5.70;;
45388;SDS011;31127;52.078;4.370;2023-07-02T21:52:31;14.88;;;4.97;;
45388;SDS011;31127;52.078;4.370;2023-07-02T21:57:27;20.40;;;4.60;;
45388;SDS011;31127;52.078;4.370;2023-07-02T22:02:24;18.85;;;4.80;;
45388;SDS011;31127;52.078;4.370;2023-07-02T22:07:20;14.50;;;4.32;;
45388;SDS011;31127;52.078;4.370;2023-07-02T22:12:35;20.40;;;5.82;;
45388;SDS011;31127;52.078;4.370;2023-07-02T22:17:31;22.15;;;4.55;;
45388;SDS011;31127;52.078;4.370;2023-07-02T22:22:27;13.50;;;4.60;;
45388;SDS011;31127;52.078;4.370;2023-07-02T22:27:23;17.30;;;4.80;;
45388;SDS011;31127;52.078;4.370;2023-07-02T22:32:21;23.13;;;5.32;;
45388;SDS011;31127;52.078;4.370;2023-07-02T22:37:37;20.23;;;4.60;;
45388;SDS011;31127;52.078;4.370;2023-07-02T22:42:53;22.33;;;6.55;;
45388;SDS011;31127;52.078;4.370;2023-07-02T22:47:49;17.52;;;3.85;;
45388;SDS011;31127;52.078;4.370;2023-07-02T22:52:45;17.75;;;5.30;;
45388;SDS011;31127;52.078;4.370;2023-07-02T22:57:41;9.10;;;4.07;;
45388;SDS011;31127;52.078;4.370;2023-07-02T23:02:40;24.02;;;4.50;;
45388;SDS011;31127;52.078;4.370;2023-07-02T23:07:37;20.95;;;5.95;;
45388;SDS011;31127;52.078;4.370;2023-07-02T23:12:32;23.50;;;5.32;;
45388;SDS011;31127;52.078;4.370;2023-07-02T23:17:28;18.80;;;4.80;;
45388;SDS011;31127;52.078;4.370;2023-07-02T23:22:23;21.83;;;5.10;;
45388;SDS011;31127;52.078;4.370;2023-07-02T23:27:19;18.45;;;4.38;;
45388;SDS011;31127;52.078;4.370;2023-07-02T23:32:15;20.60;;;4.57;;
45388;SDS011;31127;52.078;4.370;2023-07-02T23:37:10;23.63;;;5.22;;
45388;SDS011;31127;52.078;4.370;2023-07-02T23:42:25;20.55;;;5.20;;
45388;SDS011;31127;52.078;4.370;2023-07-02T23:47:41;24.17;;;5.72;;
45388;SDS011;31127;52.078;4.370;2023-07-02T23:52:38;18.35;;;5.22;;
45388;SDS011;31127;52.078;4.370;2023-07-02T23:57:33;31.58;;;7.13;;
